createdAt,value
2023-05-11T00:01:10.289Z,99952.78
2023-05-11T00:03:38.403Z,99953.09
2023-05-11T00:06:06.184Z,99950.78
2023-05-11T00:08:33.627Z,99954.84
2023-05-11T00:11:01.634Z,99953.16
2023-05-11T00:13:29.384Z,99948.91
2023-05-11T00:15:56.946Z,99944.03
2023-05-11T00:18:24.611Z,99944.03
2023-05-11T00:20:52.069Z,99944.22
2023-05-11T00:23:19.452Z,99951.91
2023-05-11T00:25:47.097Z,99944.97
2023-05-11T00:28:14.497Z,99947.75
2023-05-11T00:30:41.988Z,99945.94
2023-05-11T00:33:09.655Z,99940.94
2023-05-11T00:35:37.263Z,99948.88
2023-05-11T00:38:04.738Z,99950.94
2023-05-11T00:40:32.732Z,99952.16
2023-05-11T00:43:00.342Z,99944.41
2023-05-11T00:45:27.974Z,99939.91
2023-05-11T00:47:55.731Z,99937.34
2023-05-11T00:50:23.254Z,99941.59
2023-05-11T00:52:50.771Z,99941.66
2023-05-11T00:55:21.736Z,99944.97
2023-05-11T00:57:49.175Z,99948.31
2023-05-11T01:00:16.990Z,99942.47
2023-05-11T01:02:45.711Z,99937.97
2023-05-11T01:05:13.531Z,99937.81
2023-05-11T01:07:47.820Z,99936.22
2023-05-11T01:10:22.961Z,99934.41
2023-05-11T01:12:53.386Z,99943.28
2023-05-11T01:15:36.931Z,99929.34
2023-05-11T01:18:25.994Z,99934.75
2023-05-11T01:20:58.633Z,99933.41
2023-05-11T01:23:32.177Z,99931.53
2023-05-11T01:26:11.531Z,99930.97
2023-05-11T01:29:03.762Z,99930.16
2023-05-11T01:31:32.639Z,99931.06
2023-05-11T01:34:12.393Z,99935.28
2023-05-11T01:36:49.607Z,99927.47
2023-05-11T01:39:22.312Z,99929.34
2023-05-11T01:41:53.436Z,99931.72
2023-05-11T01:44:22.905Z,99929.19
2023-05-11T01:46:51.462Z,99930.44
2023-05-11T01:49:19.937Z,99930.13
2023-05-11T01:51:49.503Z,99930.97
2023-05-11T01:54:19.224Z,99932.81
2023-05-11T01:56:48.042Z,99928.31
2023-05-11T01:59:17.169Z,99928.56
2023-05-11T02:01:44.986Z,99924.06
2023-05-11T02:04:15.538Z,99924.37
2023-05-11T02:06:43.606Z,99921.62
2023-05-11T02:09:12.324Z,99920.97
2023-05-11T02:11:40.494Z,99921.84
2023-05-11T02:14:10.230Z,99923.50
2023-05-11T02:16:37.836Z,99922.25
2023-05-11T02:19:07.730Z,99914.56
2023-05-11T02:21:37.304Z,99917.00
2023-05-11T02:24:06.479Z,99908.25
2023-05-11T02:26:34.164Z,99915.56
2023-05-11T02:29:01.940Z,99911.06
2023-05-11T02:31:30.739Z,99911.75
2023-05-11T02:34:04.734Z,99911.94
2023-05-11T02:36:33.624Z,99913.88
2023-05-11T02:39:07.173Z,99907.66
2023-05-11T02:41:39.774Z,99905.97
2023-05-11T02:44:09.607Z,99903.28
2023-05-11T02:46:38.696Z,99900.19
2023-05-11T02:49:08.835Z,99898.44
2023-05-11T02:51:38.113Z,99900.13
2023-05-11T02:54:12.866Z,99896.69
2023-05-11T02:56:41.313Z,99901.19
2023-05-11T02:59:09.310Z,99900.59
2023-05-11T03:01:37.122Z,99897.31
2023-05-11T03:04:05.653Z,99893.72
2023-05-11T03:06:33.603Z,99890.44
2023-05-11T03:09:01.820Z,99888.50
2023-05-11T03:11:30.612Z,99901.91
2023-05-11T03:13:58.749Z,99902.09
2023-05-11T03:16:26.826Z,99899.63
2023-05-11T03:18:55.544Z,99899.69
2023-05-11T03:21:23.809Z,99901.63
2023-05-11T03:23:51.762Z,99908.59
2023-05-11T03:26:21.276Z,99906.84
2023-05-11T03:28:50.936Z,99914.88
2023-05-11T03:31:18.818Z,99907.75
2023-05-11T03:33:46.289Z,99909.72
2023-05-11T03:36:14.824Z,99914.03
2023-05-11T03:38:42.861Z,99913.47
2023-05-11T03:41:14.436Z,99909.91
2023-05-11T03:43:43.447Z,99911.00
2023-05-11T03:46:12.362Z,99908.38
2023-05-11T03:48:41.690Z,99914.59
2023-05-11T03:51:10.343Z,99909.37
2023-05-11T03:53:38.304Z,99911.09
2023-05-11T03:56:09.229Z,99916.47
2023-05-11T03:58:40.518Z,99907.69
2023-05-11T04:01:11.539Z,99912.84
2023-05-11T04:03:52.708Z,99917.59
2023-05-11T04:06:20.570Z,99917.63
2023-05-11T04:08:48.809Z,99912.09
2023-05-11T04:11:16.258Z,99920.16
2023-05-11T04:13:43.636Z,99920.13
2023-05-11T04:16:11.380Z,99917.53
2023-05-11T04:18:38.950Z,99927.78
2023-05-11T04:21:06.385Z,99922.56
2023-05-11T04:23:34.085Z,99915.22
2023-05-11T04:26:01.524Z,99924.78
2023-05-11T04:28:29.480Z,99928.12
2023-05-11T04:30:58.708Z,99929.78
2023-05-11T04:33:26.198Z,99934.94
2023-05-11T04:35:54.873Z,99931.34
2023-05-11T04:38:23.078Z,99933.81
2023-05-11T04:40:50.878Z,99935.69
2023-05-11T04:43:19.178Z,99930.91
2023-05-11T04:45:51.167Z,99933.44
2023-05-11T04:48:20.948Z,99939.50
2023-05-11T04:50:48.849Z,99941.19
2023-05-11T04:53:16.942Z,99938.56
2023-05-11T04:55:44.867Z,99944.81
2023-05-11T04:58:12.631Z,99940.97
2023-05-11T05:00:40.097Z,99947.06
2023-05-11T05:03:07.573Z,99948.88
2023-05-11T05:05:35.305Z,99947.97
2023-05-11T05:08:02.756Z,99950.78
2023-05-11T05:10:30.187Z,99947.84
2023-05-11T05:12:58.818Z,99941.06
2023-05-11T05:15:26.761Z,99949.50
2023-05-11T05:17:54.284Z,99942.78
2023-05-11T05:20:22.380Z,99948.03
2023-05-11T05:22:49.819Z,99947.81
2023-05-11T05:25:17.290Z,99946.94
2023-05-11T05:27:45.362Z,99955.41
2023-05-11T05:30:13.685Z,99946.44
2023-05-11T05:32:41.106Z,99957.44
2023-05-11T05:35:09.098Z,99957.41
2023-05-11T05:37:37.598Z,99951.09
2023-05-11T05:40:05.775Z,99953.22
2023-05-11T05:42:33.989Z,99956.53
2023-05-11T05:45:01.423Z,99957.06
2023-05-11T05:47:28.961Z,99957.25
2023-05-11T05:49:56.713Z,99963.72
2023-05-11T05:52:24.265Z,99964.53
2023-05-11T05:54:51.847Z,99970.37
2023-05-11T05:57:19.658Z,99965.50
2023-05-11T05:59:47.804Z,99973.16
2023-05-11T06:02:15.697Z,99968.97
2023-05-11T06:04:43.737Z,99965.31
2023-05-11T06:07:11.636Z,99962.78
2023-05-11T06:09:39.369Z,99963.25
2023-05-11T06:12:07.271Z,99962.91
2023-05-11T06:14:35.399Z,99970.41
2023-05-11T06:17:02.939Z,99973.56
2023-05-11T06:19:30.656Z,99971.13
2023-05-11T06:21:58.848Z,99967.56
2023-05-11T06:24:26.394Z,99965.66
2023-05-11T06:26:55.133Z,99965.25
2023-05-11T06:29:23.087Z,99966.19
2023-05-11T06:31:52.898Z,99967.19
2023-05-11T06:34:20.889Z,99972.47
2023-05-11T06:36:48.801Z,99961.78
2023-05-11T06:39:16.282Z,99957.34
2023-05-11T06:41:44.525Z,99973.47
2023-05-11T06:44:13.026Z,99958.19
2023-05-11T06:46:43.436Z,99962.41
2023-05-11T06:49:11.501Z,99953.78
2023-05-11T06:51:38.909Z,99954.25
2023-05-11T06:54:07.337Z,99957.97
2023-05-11T06:56:35.438Z,99955.63
2023-05-11T06:59:03.038Z,99957.13
2023-05-11T07:01:31.637Z,99953.13
2023-05-11T07:03:59.364Z,99956.59
2023-05-11T07:06:27.688Z,99946.56
2023-05-11T07:08:55.658Z,99947.75
2023-05-11T07:11:23.406Z,99942.13
2023-05-11T07:13:50.837Z,99951.44
2023-05-11T07:16:19.018Z,99948.75
2023-05-11T07:18:46.833Z,99943.19
2023-05-11T07:21:14.799Z,99942.81
2023-05-11T07:23:42.948Z,99946.25
2023-05-11T07:26:10.873Z,99942.81
2023-05-11T07:28:38.658Z,99939.31
2023-05-11T07:31:06.132Z,99934.63
2023-05-11T07:33:34.725Z,99937.16
2023-05-11T07:36:02.170Z,99942.59
2023-05-11T07:38:29.637Z,99938.06
2023-05-11T07:40:57.367Z,99932.03
2023-05-11T07:43:24.793Z,99937.97
2023-05-11T07:45:52.577Z,99937.72
2023-05-11T07:48:20.831Z,99935.31
2023-05-11T07:50:49.546Z,99925.50
2023-05-11T07:53:17.146Z,99931.56
2023-05-11T07:55:44.790Z,99931.53
2023-05-11T07:58:12.518Z,99930.00
2023-05-11T08:00:40.025Z,99932.47
2023-05-11T08:03:07.988Z,99932.19
2023-05-11T08:05:37.825Z,99930.66
2023-05-11T08:08:05.555Z,99930.06
2023-05-11T08:10:33.272Z,99927.72
2023-05-11T08:13:00.716Z,99928.47
2023-05-11T08:15:28.334Z,99927.47
2023-05-11T08:17:56.780Z,99921.03
2023-05-11T08:20:24.290Z,99925.47
2023-05-11T08:22:51.704Z,99920.97
2023-05-11T08:25:19.761Z,99922.16
2023-05-11T08:27:47.383Z,99914.12
2023-05-11T08:30:14.919Z,99919.50
2023-05-11T08:35:13.358Z,99907.25
2023-05-11T08:37:40.760Z,99909.03
2023-05-11T08:40:13.823Z,99908.69
2023-05-11T08:42:45.719Z,99901.28
2023-05-11T08:45:13.488Z,99900.25
2023-05-11T08:47:41.518Z,99905.25
2023-05-11T08:50:09.338Z,99894.25
2023-05-11T08:52:37.061Z,99898.66
2023-05-11T08:55:05.003Z,99892.81
2023-05-11T08:57:34.792Z,99891.06
2023-05-11T09:00:03.505Z,99874.22
2023-05-11T09:02:33.512Z,99886.66
2023-05-11T09:05:04.186Z,99880.53
2023-05-11T09:07:34.425Z,99870.50
2023-05-11T09:10:01.829Z,99869.06
2023-05-11T09:12:30.054Z,99871.87
2023-05-11T09:15:01.883Z,99880.81
2023-05-11T09:17:29.761Z,99864.16
2023-05-11T09:20:01.613Z,99873.28
2023-05-11T09:22:36.685Z,99866.81
2023-05-11T09:25:04.859Z,99876.66
2023-05-11T09:27:33.007Z,99865.69
2023-05-11T09:30:11.438Z,99862.41
2023-05-11T09:32:49.695Z,99863.75
2023-05-11T09:35:20.357Z,99845.59
2023-05-11T09:38:01.293Z,99856.19
2023-05-11T09:40:34.219Z,99854.19
2023-05-11T09:43:04.202Z,99867.91
2023-05-11T09:45:38.259Z,99858.84
2023-05-11T09:48:07.572Z,99849.72
2023-05-11T09:50:35.920Z,99847.56
2023-05-11T09:53:03.398Z,99845.88
2023-05-11T09:55:31.121Z,99851.03
2023-05-11T09:57:59.687Z,99848.09
2023-05-11T10:00:27.211Z,99844.09
2023-05-11T10:03:03.169Z,99839.16
2023-05-11T10:05:32.960Z,99835.72
2023-05-11T10:08:05.385Z,99834.41
2023-05-11T10:10:33.110Z,99826.34
2023-05-11T10:13:02.485Z,99829.41
2023-05-11T10:15:31.978Z,99826.66
2023-05-11T10:18:02.622Z,99833.53
2023-05-11T10:20:30.408Z,99821.28
2023-05-11T10:22:57.970Z,99820.88
2023-05-11T10:25:29.090Z,99819.41
2023-05-11T10:27:57.396Z,99816.13
2023-05-11T10:30:25.029Z,99822.66
2023-05-11T10:32:53.231Z,99822.78
2023-05-11T10:35:21.979Z,99822.31
2023-05-11T10:37:50.505Z,99816.00
2023-05-11T10:40:18.309Z,99819.34
2023-05-11T10:43:10.750Z,99815.06
2023-05-11T10:45:44.037Z,99814.75
2023-05-11T10:48:26.988Z,99814.88
2023-05-11T10:51:32.181Z,99809.50
2023-05-11T10:54:20.729Z,99803.81
2023-05-11T10:57:12.618Z,99803.13
2023-05-11T11:00:13.551Z,99798.97
2023-05-11T11:02:41.668Z,99806.88
2023-05-11T11:05:14.087Z,99797.00
2023-05-11T11:08:03.774Z,99803.56
2023-05-11T11:10:45.420Z,99793.06
2023-05-11T11:13:15.117Z,99796.13
2023-05-11T11:16:05.965Z,99786.91
2023-05-11T11:18:33.655Z,99798.91
2023-05-11T11:21:02.114Z,99792.72
2023-05-11T11:23:43.407Z,99778.16
2023-05-11T11:26:15.418Z,99782.59
2023-05-11T11:28:54.857Z,99785.34
2023-05-11T11:31:27.470Z,99791.09
2023-05-11T11:34:01.015Z,99784.06
2023-05-11T11:37:03.716Z,99786.50
2023-05-11T11:39:43.155Z,99782.28
2023-05-11T11:42:15.206Z,99792.19
2023-05-11T11:44:44.210Z,99775.44
2023-05-11T11:47:12.182Z,99783.59
2023-05-11T11:49:44.371Z,99786.97
2023-05-11T11:52:33.470Z,99772.72
2023-05-11T11:55:03.460Z,99778.69
2023-05-11T11:57:34.093Z,99778.22
2023-05-11T12:00:02.216Z,99776.66
2023-05-11T12:02:43.301Z,99764.25
2023-05-11T12:05:14.114Z,99759.22
2023-05-11T12:07:47.195Z,99771.56
2023-05-11T12:10:17.381Z,99776.59
2023-05-11T12:12:45.836Z,99768.75
2023-05-11T12:15:34.210Z,99758.47
2023-05-11T12:18:03.326Z,99757.69
2023-05-11T12:20:30.856Z,99756.66
2023-05-11T12:22:58.298Z,99754.56
2023-05-11T12:25:26.043Z,99742.94
2023-05-11T12:27:55.745Z,99747.41
2023-05-11T12:30:28.190Z,99755.97
2023-05-11T12:32:57.859Z,99758.13
2023-05-11T12:35:33.562Z,99743.19
2023-05-11T12:38:02.675Z,99739.41
2023-05-11T12:40:30.997Z,99734.91
2023-05-11T12:42:59.681Z,99732.69
2023-05-11T12:45:27.707Z,99733.87
2023-05-11T12:47:56.502Z,99725.81
2023-05-11T12:50:24.101Z,99723.00
2023-05-11T12:52:52.684Z,99719.34
2023-05-11T12:55:30.405Z,99718.87
2023-05-11T12:58:15.426Z,99727.37
2023-05-11T13:00:59.807Z,99718.03
2023-05-11T13:03:29.387Z,99703.34
2023-05-11T13:06:05.903Z,99703.72
2023-05-11T13:08:34.282Z,99705.09
2023-05-11T13:11:22.441Z,99703.03
2023-05-11T13:13:51.246Z,99709.53
2023-05-11T13:16:32.830Z,99696.31
2023-05-11T13:19:02.388Z,99707.28
2023-05-11T13:21:32.719Z,99702.06
2023-05-11T13:24:02.094Z,99705.38
2023-05-11T13:26:30.670Z,99691.94
2023-05-11T13:29:09.595Z,99687.25
2023-05-11T13:31:48.893Z,99690.66
2023-05-11T13:34:17.131Z,99685.69
2023-05-11T13:36:44.974Z,99695.41
2023-05-11T13:39:12.793Z,99684.16
2023-05-11T13:41:40.245Z,99680.19
2023-05-11T13:44:08.073Z,99682.63
2023-05-11T13:46:35.689Z,99678.50
2023-05-11T13:49:03.771Z,99671.63
2023-05-11T13:51:32.183Z,99669.00
2023-05-11T13:54:00.945Z,99684.25
2023-05-11T13:56:28.673Z,99682.97
2023-05-11T13:58:59.176Z,99672.94
2023-05-11T14:01:27.951Z,99677.34
2023-05-11T14:03:56.443Z,99674.13
2023-05-11T14:06:25.504Z,99672.66
2023-05-11T14:08:53.305Z,99667.19
2023-05-11T14:11:21.463Z,99678.78
2023-05-11T14:13:49.499Z,99667.69
2023-05-11T14:16:18.503Z,99670.59
2023-05-11T14:18:46.760Z,99664.72
2023-05-11T14:21:14.297Z,99664.63
2023-05-11T14:23:47.335Z,99669.50
2023-05-11T14:26:22.065Z,99665.66
2023-05-11T14:28:49.445Z,99657.37
2023-05-11T14:31:17.088Z,99650.94
2023-05-11T14:33:44.789Z,99672.84
2023-05-11T14:36:13.021Z,99664.28
2023-05-11T14:38:40.527Z,99670.12
2023-05-11T14:41:08.772Z,99659.25
2023-05-11T14:43:36.531Z,99660.16
2023-05-11T14:46:04.254Z,99657.44
2023-05-11T14:50:59.164Z,99663.97
2023-05-11T14:53:26.713Z,99660.69
2023-05-11T14:55:54.439Z,99662.16
2023-05-11T14:58:21.915Z,99657.94
2023-05-11T15:00:49.273Z,99659.06
2023-05-11T15:03:16.986Z,99666.53
2023-05-11T15:05:46.670Z,99660.50
2023-05-11T15:08:28.339Z,99664.81
2023-05-11T15:10:56.373Z,99664.47
2023-05-11T15:13:24.072Z,99663.69
2023-05-11T15:15:51.864Z,99675.69
2023-05-11T15:18:19.709Z,99666.34
2023-05-11T15:20:47.241Z,99672.56
2023-05-11T15:23:16.697Z,99670.63
2023-05-11T15:25:45.266Z,99672.41
2023-05-11T15:28:13.286Z,99673.81
2023-05-11T15:30:42.070Z,99672.25
2023-05-11T15:33:10.506Z,99671.94
2023-05-11T15:35:38.167Z,99671.13
2023-05-11T15:38:06.394Z,99669.19
2023-05-11T15:40:34.222Z,99673.16
2023-05-11T15:43:01.660Z,99669.28
2023-05-11T15:45:29.406Z,99672.56
2023-05-11T15:47:58.283Z,99680.87
2023-05-11T15:50:25.750Z,99681.34
2023-05-11T15:52:53.150Z,99684.31
2023-05-11T15:55:21.083Z,99680.50
2023-05-11T15:57:48.466Z,99680.81
2023-05-11T16:00:16.434Z,99682.75
2023-05-11T16:02:45.755Z,99687.66
2023-05-11T16:05:13.369Z,99683.94
2023-05-11T16:07:40.788Z,99693.91
2023-05-11T16:10:08.896Z,99706.16
2023-05-11T16:12:36.358Z,99691.53
2023-05-11T16:15:04.153Z,99691.09
2023-05-11T16:17:31.942Z,99698.66
2023-05-11T16:20:00.465Z,99702.88
2023-05-11T16:22:28.364Z,99700.31
2023-05-11T16:24:56.406Z,99701.94
2023-05-11T16:27:23.805Z,99709.09
2023-05-11T16:29:52.331Z,99705.69
2023-05-11T16:32:20.339Z,99710.91
2023-05-11T16:34:47.780Z,99710.97
2023-05-11T16:37:15.716Z,99716.38
2023-05-11T16:39:43.384Z,99726.63
2023-05-11T16:42:10.816Z,99721.38
2023-05-11T16:44:38.220Z,99734.13
2023-05-11T16:47:05.976Z,99739.66
2023-05-11T16:49:33.435Z,99743.94
2023-05-11T16:52:00.865Z,99741.75
2023-05-11T16:54:29.117Z,99742.72
2023-05-11T16:56:56.810Z,99746.25
2023-05-11T16:59:24.224Z,99746.34
2023-05-11T17:01:51.894Z,99748.59
2023-05-11T17:04:19.409Z,99757.81
2023-05-11T17:06:46.918Z,99757.31
2023-05-11T17:09:14.653Z,99758.91
2023-05-11T17:11:42.118Z,99767.69
2023-05-11T17:14:09.498Z,99761.66
2023-05-11T17:16:37.408Z,99764.50
2023-05-11T17:19:04.883Z,99764.72
2023-05-11T17:21:32.481Z,99769.91
2023-05-11T17:24:00.253Z,99767.72
2023-05-11T17:26:39.193Z,99773.66
2023-05-11T17:29:22.590Z,99772.78
2023-05-11T17:31:51.670Z,99781.75
2023-05-11T17:34:21.480Z,99783.12
2023-05-11T17:36:50.316Z,99790.69
2023-05-11T17:39:19.142Z,99795.25
2023-05-11T17:41:47.377Z,99795.41
2023-05-11T17:44:14.770Z,99797.69
2023-05-11T17:46:42.144Z,99800.94
2023-05-11T17:49:10.173Z,99796.03
2023-05-11T17:51:37.807Z,99803.78
2023-05-11T17:54:05.254Z,99806.34
2023-05-11T17:56:33.438Z,99805.72
2023-05-11T17:59:00.897Z,99815.16
2023-05-11T18:01:28.463Z,99815.91
2023-05-11T18:03:57.865Z,99824.25
2023-05-11T18:06:25.568Z,99829.78
2023-05-11T18:08:53.647Z,99833.31
2023-05-11T18:11:21.987Z,99840.22
2023-05-11T18:13:49.467Z,99844.06
2023-05-11T18:16:17.693Z,99844.06
2023-05-11T18:18:45.523Z,99852.19
2023-05-11T18:21:13.241Z,99847.87
2023-05-11T18:23:40.646Z,99854.88
2023-05-11T18:26:08.372Z,99859.19
2023-05-11T18:28:35.787Z,99871.25
2023-05-11T18:31:03.318Z,99872.25
2023-05-11T18:33:31.347Z,99873.84
2023-05-11T18:35:58.795Z,99861.63
2023-05-11T18:38:26.177Z,99876.63
2023-05-11T18:40:54.008Z,99881.91
2023-05-11T18:43:21.953Z,99882.59
2023-05-11T18:45:50.323Z,99895.50
2023-05-11T18:48:19.769Z,99896.22
2023-05-11T18:50:56.563Z,99898.78
2023-05-11T18:53:25.003Z,99903.25
2023-05-11T18:55:53.774Z,99905.34
2023-05-11T18:58:21.617Z,99910.19
2023-05-11T19:00:50.686Z,99913.81
2023-05-11T19:03:19.467Z,99917.53
2023-05-11T19:05:47.881Z,99913.81
2023-05-11T19:08:16.437Z,99922.59
2023-05-11T19:10:45.431Z,99931.59
2023-05-11T19:13:13.351Z,99927.41
2023-05-11T19:15:40.994Z,99931.09
2023-05-11T19:18:08.417Z,99932.06
2023-05-11T19:20:35.870Z,99930.69
2023-05-11T19:23:04.428Z,99935.91
2023-05-11T19:25:31.850Z,99940.31
2023-05-11T19:27:59.844Z,99937.12
2023-05-11T19:30:27.732Z,99946.59
2023-05-11T19:32:55.391Z,99944.31
2023-05-11T19:35:22.903Z,99949.50
2023-05-11T19:37:50.603Z,99940.66
2023-05-11T19:40:44.417Z,99943.31
2023-05-11T19:43:08.057Z,99944.38
2023-05-11T19:45:37.261Z,99947.06
2023-05-11T19:48:04.807Z,99950.50
2023-05-11T19:50:32.796Z,99944.31
2023-05-11T19:53:00.480Z,99940.81
2023-05-11T19:55:27.907Z,99941.72
2023-05-11T19:57:55.592Z,99948.03
2023-05-11T20:00:25.194Z,99944.31
2023-05-11T20:02:53.127Z,99938.06
2023-05-11T20:05:20.690Z,99944.09
2023-05-11T20:07:48.396Z,99951.38
2023-05-11T20:10:16.835Z,99943.50
2023-05-11T20:12:44.484Z,99942.78
2023-05-11T20:15:12.000Z,99940.97
2023-05-11T20:17:39.856Z,99940.16
2023-05-11T20:20:08.738Z,99946.06
2023-05-11T20:22:36.956Z,99949.63
2023-05-11T20:25:13.871Z,99942.06
2023-05-11T20:27:45.171Z,99947.37
2023-05-11T20:30:13.196Z,99943.13
2023-05-11T20:34:06.736Z,99944.81
2023-05-11T20:35:28.449Z,99944.66
2023-05-11T20:37:55.843Z,99947.44
2023-05-11T20:40:23.186Z,99948.31
2023-05-11T20:42:50.952Z,99950.06
2023-05-11T20:45:18.445Z,99955.31
2023-05-11T20:47:45.854Z,99949.13
2023-05-11T20:50:14.972Z,99945.56
2023-05-11T20:52:42.457Z,99952.69
2023-05-11T20:55:09.942Z,99952.69
2023-05-11T20:57:37.673Z,99941.19
2023-05-11T21:00:07.638Z,99952.84
2023-05-11T21:02:35.420Z,99943.28
2023-05-11T21:05:03.915Z,99946.00
2023-05-11T21:07:32.371Z,99951.38
2023-05-11T21:10:01.649Z,99946.16
2023-05-11T21:12:29.432Z,99946.19
2023-05-11T21:14:57.146Z,99945.19
2023-05-11T21:17:24.781Z,99931.78
2023-05-11T21:19:52.582Z,99932.94
2023-05-11T21:22:20.043Z,99934.00
2023-05-11T21:24:47.656Z,99936.44
2023-05-11T21:27:15.373Z,99936.84
2023-05-11T21:29:42.791Z,99933.34
2023-05-11T21:32:10.505Z,99929.00
2023-05-11T21:34:38.536Z,99932.63
2023-05-11T21:37:05.985Z,99934.38
2023-05-11T21:39:33.477Z,99940.63
2023-05-11T21:42:02.706Z,99941.47
2023-05-11T21:44:30.324Z,99948.72
2023-05-11T21:46:57.750Z,99946.72
2023-05-11T21:49:25.611Z,99941.63
2023-05-11T21:51:53.265Z,99949.56
2023-05-11T21:54:22.277Z,99944.84
2023-05-11T21:56:52.031Z,99950.06
2023-05-11T21:59:19.863Z,99943.09
2023-05-11T22:01:49.672Z,99938.09
2023-05-11T22:04:17.406Z,99951.12
2023-05-11T22:06:44.862Z,99948.31
2023-05-11T22:09:12.704Z,99945.72
2023-05-11T22:11:40.522Z,99946.44
2023-05-11T22:14:07.920Z,99945.53
2023-05-11T22:16:35.414Z,99951.81
2023-05-11T22:19:04.018Z,99943.75
2023-05-11T22:21:31.611Z,99950.09
2023-05-11T22:23:59.183Z,99949.06
2023-05-11T22:26:27.008Z,99952.53
2023-05-11T22:28:54.922Z,99954.47
2023-05-11T22:31:22.426Z,99956.94
2023-05-11T22:33:50.100Z,99955.25
2023-05-11T22:36:17.470Z,99951.56
2023-05-11T22:38:44.853Z,99957.78
2023-05-11T22:41:12.533Z,99961.13
2023-05-11T22:43:39.919Z,99953.94
2023-05-11T22:46:08.026Z,99963.66
2023-05-11T22:48:35.868Z,99959.94
2023-05-11T22:51:06.166Z,99960.00
2023-05-11T22:53:33.569Z,99962.69
2023-05-11T22:56:05.754Z,99961.19
2023-05-11T22:58:33.342Z,99956.88
2023-05-11T23:01:01.319Z,99957.56
2023-05-11T23:03:29.105Z,99959.12
2023-05-11T23:05:56.575Z,99960.06
2023-05-11T23:08:26.486Z,99953.25
2023-05-11T23:10:53.899Z,99958.56
2023-05-11T23:13:21.365Z,99954.91
2023-05-11T23:15:49.332Z,99963.75
2023-05-11T23:18:17.110Z,99958.56
2023-05-11T23:20:44.580Z,99962.87
2023-05-11T23:23:12.655Z,99956.59
2023-05-11T23:25:40.334Z,99953.66
2023-05-11T23:28:11.316Z,99959.69
2023-05-11T23:30:39.160Z,99952.63
2023-05-11T23:33:06.693Z,99958.16
2023-05-11T23:35:34.238Z,99952.81
2023-05-11T23:38:02.144Z,99952.12
2023-05-11T23:40:29.798Z,99950.34
2023-05-11T23:42:57.237Z,99949.50
2023-05-11T23:45:25.487Z,99946.09
2023-05-11T23:47:52.959Z,99943.34
2023-05-11T23:50:20.565Z,99940.63
2023-05-11T23:52:48.392Z,99938.00
2023-05-11T23:55:15.833Z,99929.94
2023-05-11T23:57:43.798Z,99935.53
